createdAt,value
2019-06-20T00:01:44.359Z,23.42
2019-06-20T00:04:13.556Z,23.22
2019-06-20T00:06:42.809Z,23.13
2019-06-20T00:09:12.014Z,23.09
2019-06-20T00:11:41.295Z,23.07
2019-06-20T00:14:10.849Z,23.00
2019-06-20T00:16:40.117Z,22.91
2019-06-20T00:19:09.319Z,22.93
2019-06-20T00:21:38.516Z,23.08
2019-06-20T00:24:07.787Z,23.05
2019-06-20T00:26:37.057Z,23.01
2019-06-20T00:29:06.670Z,22.97
2019-06-20T00:31:35.867Z,22.95
2019-06-20T00:34:05.116Z,22.92
2019-06-20T00:36:34.322Z,22.91
2019-06-20T00:41:58.584Z,22.88
2019-06-20T00:44:27.858Z,22.85
2019-06-20T00:46:57.545Z,22.85
2019-06-20T00:49:27.152Z,22.80
2019-06-20T00:51:56.404Z,22.82
2019-06-20T00:54:25.969Z,22.77
2019-06-20T00:56:55.171Z,22.71
2019-06-20T00:59:24.756Z,22.68
2019-06-20T01:01:53.956Z,22.61
2019-06-20T01:04:23.207Z,22.48
2019-06-20T01:06:52.410Z,22.50
2019-06-20T01:09:21.599Z,22.49
2019-06-20T01:11:51.168Z,22.49
2019-06-20T01:14:20.662Z,22.43
2019-06-20T01:16:49.917Z,22.47
2019-06-20T01:19:19.122Z,22.44
2019-06-20T01:21:48.809Z,22.49
2019-06-20T01:24:18.011Z,22.49
2019-06-20T01:26:47.704Z,22.43
2019-06-20T01:29:36.021Z,22.54
2019-06-20T01:32:05.270Z,22.46
2019-06-20T01:34:34.464Z,22.40
2019-06-20T01:37:03.719Z,22.42
2019-06-20T01:39:32.922Z,22.42
2019-06-20T01:44:37.083Z,22.35
2019-06-20T01:47:06.274Z,22.32
2019-06-20T01:49:35.545Z,22.35
2019-06-20T01:52:04.733Z,22.40
2019-06-20T01:54:34.381Z,22.42
2019-06-20T01:57:03.580Z,22.53
2019-06-20T01:59:32.819Z,22.61
2019-06-20T02:02:02.023Z,22.55
2019-06-20T02:04:31.268Z,22.56
2019-06-20T02:07:00.483Z,22.56
2019-06-20T02:09:30.067Z,22.50
2019-06-20T02:11:59.347Z,22.53
2019-06-20T02:14:29.155Z,22.61
2019-06-20T02:16:58.776Z,22.64
2019-06-20T02:19:28.112Z,22.67
2019-06-20T02:21:57.421Z,22.67
2019-06-20T02:24:27.073Z,22.35
2019-06-20T02:26:56.498Z,22.25
2019-06-20T02:29:25.765Z,22.13
2019-06-20T02:31:54.952Z,22.03
2019-06-20T02:34:24.205Z,22.02
2019-06-20T02:36:53.419Z,21.85
2019-06-20T02:39:22.634Z,21.73
2019-06-20T02:41:51.842Z,21.72
2019-06-20T02:44:29.914Z,21.72
2019-06-20T02:46:52.033Z,21.74
2019-06-20T02:49:21.237Z,21.84
2019-06-20T02:52:30.141Z,21.89
2019-06-20T02:54:59.389Z,21.98
2019-06-20T02:57:28.590Z,22.08
2019-06-20T02:59:58.190Z,22.08
2019-06-20T03:02:27.380Z,22.04
2019-06-20T03:04:56.578Z,22.05
2019-06-20T03:07:25.829Z,21.98
2019-06-20T03:09:55.385Z,21.99
2019-06-20T03:12:25.045Z,22.03
2019-06-20T03:14:54.242Z,22.04
2019-06-20T03:17:23.489Z,22.01
2019-06-20T03:19:52.692Z,21.92
2019-06-20T03:22:21.935Z,21.88
2019-06-20T03:24:51.131Z,21.84
2019-06-20T03:27:20.425Z,21.80
2019-06-20T03:29:49.629Z,21.82
2019-06-20T03:32:18.881Z,21.73
2019-06-20T03:34:48.064Z,21.80
2019-06-20T03:37:17.331Z,21.88
2019-06-20T03:39:46.827Z,22.02
2019-06-20T03:42:16.071Z,21.94
2019-06-20T03:45:00.998Z,21.80
2019-06-20T03:47:16.265Z,21.87
2019-06-20T03:49:45.796Z,21.92
2019-06-20T03:58:44.892Z,21.91
2019-06-20T04:01:14.139Z,21.86
2019-06-20T04:03:43.345Z,22.00
2019-06-20T04:06:12.589Z,21.95
2019-06-20T04:08:41.791Z,21.95
2019-06-20T04:11:11.405Z,21.96
2019-06-20T04:13:40.597Z,21.92
2019-06-20T04:16:10.111Z,21.89
2019-06-20T04:18:39.770Z,21.87
2019-06-20T04:21:09.329Z,21.88
2019-06-20T04:23:38.579Z,21.95
2019-06-20T04:26:07.922Z,21.87
2019-06-20T04:28:37.542Z,21.78
2019-06-20T04:31:07.037Z,21.73
2019-06-20T04:33:36.297Z,21.74
2019-06-20T04:36:06.086Z,21.80
2019-06-20T04:38:35.336Z,21.83
2019-06-20T04:41:04.530Z,21.93
2019-06-20T04:43:33.775Z,21.89
2019-06-20T04:46:22.288Z,21.88
2019-06-20T04:48:51.537Z,21.96
2019-06-20T04:51:20.737Z,21.88
2019-06-20T04:53:50.709Z,21.92
2019-06-20T04:56:20.339Z,21.95
2019-06-20T04:58:49.611Z,21.97
2019-06-20T05:01:18.803Z,21.86
2019-06-20T05:03:48.041Z,21.88
2019-06-20T05:06:17.241Z,21.87
2019-06-20T05:08:46.827Z,21.90
2019-06-20T05:11:16.022Z,21.89
2019-06-20T05:13:59.417Z,21.93
2019-06-20T05:16:16.217Z,21.97
2019-06-20T05:18:45.486Z,21.95
2019-06-20T05:21:14.670Z,21.94
2019-06-20T05:23:43.914Z,21.86
2019-06-20T05:26:13.155Z,21.94
2019-06-20T05:28:42.750Z,21.99
2019-06-20T05:31:11.944Z,22.07
2019-06-20T05:33:41.205Z,22.20
2019-06-20T05:36:10.405Z,22.24
2019-06-20T05:38:39.658Z,22.41
2019-06-20T05:41:09.145Z,22.45
2019-06-20T05:43:38.756Z,22.44
2019-06-20T05:46:10.820Z,22.38
2019-06-20T05:48:39.036Z,22.46
2019-06-20T05:51:08.240Z,22.55
2019-06-20T05:53:37.808Z,22.63
2019-06-20T05:56:07.015Z,22.71
2019-06-20T05:58:36.573Z,22.64
2019-06-20T06:01:05.875Z,22.61
2019-06-20T06:03:35.417Z,22.55
2019-06-20T06:06:04.678Z,22.54
2019-06-20T06:08:34.125Z,22.61
2019-06-20T06:11:05.641Z,22.72
2019-06-20T06:13:34.837Z,22.65
2019-06-20T06:16:04.107Z,22.57
2019-06-20T06:18:33.311Z,22.60
2019-06-20T06:21:03.021Z,22.64
2019-06-20T06:23:32.569Z,22.72
2019-06-20T06:26:02.266Z,22.63
2019-06-20T06:28:31.484Z,22.59
2019-06-20T06:31:00.731Z,22.58
2019-06-20T06:33:29.966Z,22.60
2019-06-20T06:35:59.235Z,22.63
2019-06-20T06:38:28.436Z,22.68
2019-06-20T06:40:57.719Z,22.71
2019-06-20T06:43:27.374Z,22.68
2019-06-20T06:45:56.887Z,22.66
2019-06-20T06:48:26.133Z,22.70
2019-06-20T06:50:55.332Z,22.66
2019-06-20T06:53:24.576Z,22.73
2019-06-20T06:55:53.769Z,22.81
2019-06-20T06:58:23.017Z,22.76
2019-06-20T07:00:52.208Z,22.77
2019-06-20T07:03:21.491Z,22.82
2019-06-20T07:05:50.665Z,22.85
2019-06-20T07:08:19.926Z,22.93
2019-06-20T07:10:49.121Z,23.03
2019-06-20T07:13:18.371Z,23.16
2019-06-20T07:15:47.592Z,23.17
2019-06-20T07:18:16.845Z,23.26
2019-06-20T07:20:46.042Z,23.41
2019-06-20T07:23:15.517Z,23.55
2019-06-20T07:25:44.773Z,23.59
2019-06-20T07:28:14.022Z,23.75
2019-06-20T07:30:43.292Z,23.66
2019-06-20T07:33:12.656Z,23.62
2019-06-20T07:35:42.105Z,23.72
2019-06-20T07:38:11.278Z,23.94
2019-06-20T07:40:40.544Z,24.06
2019-06-20T07:43:09.756Z,24.19
2019-06-20T07:45:39.022Z,24.49
2019-06-20T07:48:09.106Z,24.54
2019-06-20T07:50:39.441Z,24.32
2019-06-20T07:53:09.297Z,24.26
2019-06-20T07:55:38.575Z,24.47
2019-06-20T07:58:07.780Z,24.88
2019-06-20T08:00:37.227Z,25.06
2019-06-20T08:03:06.432Z,25.05
2019-06-20T08:08:11.298Z,25.53
2019-06-20T08:10:40.910Z,25.47
2019-06-20T08:13:10.214Z,25.63
2019-06-20T08:15:39.780Z,25.71
2019-06-20T08:18:09.803Z,25.66
2019-06-20T08:20:39.011Z,25.84
2019-06-20T08:23:08.423Z,25.92
2019-06-20T08:25:37.751Z,25.72
2019-06-20T08:28:08.117Z,25.68
2019-06-20T08:31:16.690Z,25.43
2019-06-20T08:33:46.559Z,25.33
2019-06-20T08:36:16.770Z,25.16
2019-06-20T08:38:46.389Z,24.93
2019-06-20T08:41:15.586Z,24.80
2019-06-20T08:43:44.868Z,24.72
2019-06-20T08:46:15.245Z,24.84
2019-06-20T08:48:44.541Z,24.98
2019-06-20T08:51:14.783Z,25.13
2019-06-20T08:53:45.340Z,25.07
2019-06-20T08:56:14.922Z,25.09
2019-06-20T08:58:44.468Z,25.10
2019-06-20T09:01:14.089Z,25.27
2019-06-20T09:03:44.057Z,25.33
2019-06-20T09:06:13.761Z,25.48
2019-06-20T09:08:42.984Z,25.53
2019-06-20T09:11:12.569Z,25.60
2019-06-20T09:13:41.764Z,25.68
2019-06-20T09:16:23.957Z,25.74
2019-06-20T09:18:41.991Z,25.77
2019-06-20T09:21:11.652Z,25.80
2019-06-20T09:23:40.851Z,25.86
2019-06-20T09:26:17.796Z,25.89
2019-06-20T09:28:47.327Z,26.14
2019-06-20T09:31:16.524Z,26.64
2019-06-20T09:34:00.690Z,26.67
2019-06-20T09:36:17.481Z,26.74
2019-06-20T09:38:46.754Z,26.62
2019-06-20T09:41:16.592Z,26.30
2019-06-20T09:43:45.901Z,26.24
2019-06-20T09:46:15.234Z,26.23
2019-06-20T09:48:44.495Z,26.30
2019-06-20T09:51:13.726Z,26.28
2019-06-20T09:53:43.344Z,26.46
2019-06-20T09:56:12.907Z,26.49
2019-06-20T09:58:42.544Z,26.55
2019-06-20T10:01:12.079Z,26.52
2019-06-20T10:03:41.410Z,26.39
2019-06-20T10:06:14.206Z,26.30
2019-06-20T10:08:41.967Z,26.25
2019-06-20T10:11:11.578Z,26.23
2019-06-20T10:13:40.792Z,26.15
2019-06-20T10:16:10.418Z,25.99
2019-06-20T10:21:27.865Z,25.86
2019-06-20T10:23:57.432Z,25.83
2019-06-20T10:26:26.742Z,25.78
2019-06-20T10:28:57.410Z,25.81
2019-06-20T10:31:27.620Z,25.80
2019-06-20T10:33:56.952Z,25.79
2019-06-20T10:36:26.149Z,25.71
2019-06-20T10:38:56.830Z,25.59
2019-06-20T10:41:26.865Z,25.42
2019-06-20T10:43:56.653Z,25.40
2019-06-20T10:46:27.089Z,25.38
2019-06-20T10:48:56.288Z,25.37
2019-06-20T10:51:45.839Z,25.36
2019-06-20T10:54:15.420Z,25.42
2019-06-20T10:56:45.833Z,25.45
2019-06-20T10:59:15.690Z,25.18
2019-06-20T11:01:46.625Z,25.28
2019-06-20T11:04:17.464Z,25.25
2019-06-20T11:06:47.590Z,25.25
2019-06-20T11:09:18.343Z,25.29
2019-06-20T11:11:48.847Z,25.34
2019-06-20T11:14:18.855Z,25.24
2019-06-20T11:16:49.287Z,25.42
2019-06-20T11:19:19.090Z,25.68
2019-06-20T11:21:48.631Z,26.20
2019-06-20T11:24:17.927Z,26.54
2019-06-20T11:26:47.985Z,26.63
2019-06-20T11:29:18.492Z,26.79
2019-06-20T11:31:49.597Z,26.91
2019-06-20T11:34:20.059Z,26.93
2019-06-20T11:36:49.287Z,26.89
2019-06-20T11:39:18.545Z,26.89
2019-06-20T11:41:48.513Z,27.10
2019-06-20T11:44:38.911Z,27.27
2019-06-20T11:47:09.706Z,27.30
2019-06-20T11:49:38.931Z,27.25
2019-06-20T11:52:08.192Z,27.41
2019-06-20T11:54:38.256Z,27.39
2019-06-20T11:57:09.539Z,27.28
2019-06-20T11:59:38.744Z,27.16
2019-06-20T12:02:08.414Z,27.20
2019-06-20T12:04:38.270Z,27.29
2019-06-20T12:07:08.695Z,27.40
2019-06-20T12:09:37.988Z,27.55
2019-06-20T12:12:09.520Z,27.62
2019-06-20T12:14:39.702Z,27.73
2019-06-20T12:17:10.101Z,27.88
2019-06-20T12:22:28.418Z,28.07
2019-06-20T12:24:57.936Z,28.06
2019-06-20T12:27:27.184Z,28.06
2019-06-20T12:29:56.438Z,28.03
2019-06-20T12:32:25.775Z,27.97
2019-06-20T12:34:55.501Z,27.69
2019-06-20T12:37:24.722Z,27.65
2019-06-20T12:39:53.971Z,27.64
2019-06-20T12:42:23.219Z,27.58
2019-06-20T12:44:52.472Z,27.50
2019-06-20T12:47:21.682Z,27.53
2019-06-20T12:49:51.364Z,27.42
2019-06-20T12:52:20.573Z,27.37
2019-06-20T12:54:49.839Z,27.22
2019-06-20T12:57:19.035Z,27.15
2019-06-20T12:59:48.401Z,27.05
2019-06-20T13:02:17.587Z,26.96
2019-06-20T13:04:47.190Z,26.91
2019-06-20T13:07:16.420Z,26.83
2019-06-20T13:09:46.334Z,26.63
2019-06-20T13:12:17.009Z,26.54
2019-06-20T13:14:47.519Z,26.42
2019-06-20T13:17:17.218Z,26.21
2019-06-20T13:19:46.573Z,26.10
2019-06-20T13:22:15.860Z,26.06
2019-06-20T13:24:45.225Z,25.93
2019-06-20T13:27:14.963Z,25.87
2019-06-20T13:29:45.273Z,25.80
2019-06-20T13:32:15.287Z,25.78
2019-06-20T13:34:44.893Z,25.73
2019-06-20T13:39:50.185Z,25.48
2019-06-20T13:42:21.256Z,25.40
2019-06-20T13:44:51.206Z,25.41
2019-06-20T13:47:20.463Z,25.25
2019-06-20T13:49:50.227Z,25.11
2019-06-20T13:52:19.446Z,24.96
2019-06-20T13:54:49.937Z,25.00
2019-06-20T13:57:41.211Z,25.06
2019-06-20T14:03:18.745Z,24.96
2019-06-20T14:05:49.789Z,24.87
2019-06-20T14:08:19.346Z,24.69
2019-06-20T14:10:49.815Z,24.61
2019-06-20T14:13:19.851Z,24.54
2019-06-20T14:15:51.263Z,24.39
2019-06-20T14:18:21.942Z,24.32
2019-06-20T14:20:51.160Z,24.18
2019-06-20T14:23:20.849Z,24.13
2019-06-20T14:25:51.519Z,24.01
2019-06-20T14:28:21.244Z,22.57
2019-06-20T14:30:50.478Z,20.10
2019-06-20T14:33:19.723Z,19.13
2019-06-20T14:35:49.741Z,18.65
2019-06-20T14:38:19.918Z,18.73
2019-06-20T14:40:50.005Z,18.83
2019-06-20T14:43:19.321Z,19.05
2019-06-20T14:45:48.756Z,19.16
2019-06-20T14:48:21.056Z,19.33
2019-06-20T14:50:51.834Z,19.46
2019-06-20T14:53:21.176Z,19.59
2019-06-20T14:55:51.628Z,19.58
2019-06-20T14:58:21.773Z,19.59
2019-06-20T15:00:52.149Z,19.66
2019-06-20T15:03:22.475Z,19.80
2019-06-20T15:05:52.580Z,19.72
2019-06-20T15:08:22.715Z,19.70
2019-06-20T15:10:52.007Z,19.67
2019-06-20T15:13:21.602Z,19.77
2019-06-20T15:15:51.137Z,19.88
2019-06-20T15:18:21.800Z,19.92
2019-06-20T15:20:51.987Z,19.86
2019-06-20T15:23:22.145Z,19.93
2019-06-20T15:25:52.108Z,19.94
2019-06-20T15:28:22.795Z,19.95
2019-06-20T15:30:52.754Z,19.96
2019-06-20T15:33:23.438Z,19.82
2019-06-20T15:35:53.389Z,19.81
2019-06-20T15:38:23.693Z,19.84
2019-06-20T15:40:53.434Z,19.83
2019-06-20T15:43:23.935Z,19.80
2019-06-20T15:45:53.882Z,19.87
2019-06-20T15:48:24.186Z,19.98
2019-06-20T15:50:53.408Z,20.15
2019-06-20T15:53:22.672Z,20.16
2019-06-20T15:55:51.917Z,20.26
2019-06-20T15:58:21.588Z,20.27
2019-06-20T16:00:50.816Z,20.40
2019-06-20T16:03:20.065Z,20.66
2019-06-20T16:05:49.693Z,20.89
2019-06-20T16:08:18.946Z,21.20
2019-06-20T16:10:48.181Z,21.33
2019-06-20T16:13:17.419Z,21.36
2019-06-20T16:15:46.999Z,21.53
2019-06-20T16:18:16.267Z,22.27
2019-06-20T16:20:45.474Z,22.79
2019-06-20T16:23:14.704Z,23.14
2019-06-20T16:25:43.961Z,23.59
2019-06-20T16:28:13.238Z,26.08
2019-06-20T16:30:42.502Z,28.76
2019-06-20T16:33:24.176Z,31.67
2019-06-20T16:35:43.024Z,34.05
2019-06-20T16:38:12.251Z,36.22
2019-06-20T16:41:22.445Z,36.92
2019-06-20T16:43:51.712Z,38.68
2019-06-20T16:46:21.298Z,39.41
2019-06-20T16:48:50.540Z,40.98
2019-06-20T16:51:38.781Z,39.68
2019-06-20T16:54:07.989Z,36.87
2019-06-20T16:56:37.312Z,33.14
2019-06-20T16:59:06.535Z,30.09
2019-06-20T17:01:35.839Z,28.50
2019-06-20T17:04:05.136Z,27.44
2019-06-20T17:06:34.353Z,26.67
2019-06-20T17:11:58.838Z,35.04
2019-06-20T17:14:28.407Z,36.56
2019-06-20T17:16:57.681Z,34.11
2019-06-20T17:19:26.940Z,31.17
2019-06-20T17:21:56.151Z,31.80
2019-06-20T17:24:25.490Z,31.08
2019-06-20T17:26:55.080Z,29.59
2019-06-20T17:29:24.411Z,28.92
2019-06-20T17:31:53.613Z,27.90
2019-06-20T17:34:23.154Z,27.15
2019-06-20T17:36:52.351Z,26.35
2019-06-20T17:39:21.602Z,25.72
2019-06-20T17:41:55.200Z,25.16
2019-06-20T17:44:21.880Z,24.94
2019-06-20T17:46:51.114Z,24.47
2019-06-20T17:49:20.364Z,23.99
2019-06-20T17:51:49.652Z,23.65
2019-06-20T17:54:19.324Z,23.27
2019-06-20T17:56:49.626Z,23.15
2019-06-20T17:59:22.553Z,23.16
2019-06-20T18:04:38.591Z,22.79
2019-06-20T18:07:07.815Z,22.75
2019-06-20T18:09:37.072Z,22.77
2019-06-20T18:12:06.268Z,22.80
2019-06-20T18:14:36.045Z,22.75
2019-06-20T18:17:05.320Z,22.68
2019-06-20T18:19:34.830Z,22.75
2019-06-20T18:22:04.074Z,22.61
2019-06-20T18:24:33.744Z,22.51
2019-06-20T18:27:03.067Z,22.46
2019-06-20T18:29:32.277Z,22.48
2019-06-20T18:32:01.518Z,22.47
2019-06-20T18:34:31.034Z,22.49
2019-06-20T18:37:00.282Z,22.37
2019-06-20T18:39:29.492Z,22.32
2019-06-20T18:41:58.811Z,22.25
2019-06-20T18:44:29.341Z,22.18
2019-06-20T18:46:58.559Z,22.21
2019-06-20T18:49:27.815Z,22.18
2019-06-20T18:51:57.376Z,22.19
2019-06-20T18:54:26.982Z,22.17
2019-06-20T18:56:56.188Z,22.13
2019-06-20T18:59:26.203Z,22.12
2019-06-20T19:01:55.412Z,22.17
2019-06-20T19:04:25.106Z,22.17
2019-06-20T19:06:54.346Z,22.21
2019-06-20T19:09:24.615Z,22.14
2019-06-20T19:11:53.824Z,22.01
2019-06-20T19:14:23.137Z,21.96
2019-06-20T19:16:52.855Z,21.99
2019-06-20T19:19:22.597Z,21.97
2019-06-20T19:21:52.372Z,21.94
2019-06-20T19:24:21.993Z,21.93
2019-06-20T19:26:51.321Z,21.84
2019-06-20T19:29:20.522Z,21.74
2019-06-20T19:31:49.775Z,21.60
2019-06-20T19:34:18.971Z,21.50
2019-06-20T19:36:48.641Z,21.47
2019-06-20T19:39:17.823Z,21.49
2019-06-20T19:41:47.467Z,21.37
2019-06-20T19:44:16.657Z,21.37
2019-06-20T19:46:45.919Z,21.46
2019-06-20T19:49:15.456Z,21.43
2019-06-20T19:51:45.070Z,21.28
2019-06-20T19:54:14.286Z,21.25
2019-06-20T19:56:44.749Z,21.33
2019-06-20T19:59:14.307Z,21.36
2019-06-20T20:01:43.851Z,21.35
2019-06-20T20:04:13.542Z,21.40
2019-06-20T20:06:43.131Z,21.44
2019-06-20T20:09:12.734Z,21.43
2019-06-20T20:11:41.954Z,21.44
2019-06-20T20:14:11.971Z,21.39
2019-06-20T20:16:41.181Z,21.30
2019-06-20T20:19:10.421Z,21.29
2019-06-20T20:21:39.633Z,21.25
2019-06-20T20:24:09.246Z,21.11
2019-06-20T20:26:38.505Z,20.98
2019-06-20T20:29:07.743Z,20.85
2019-06-20T20:31:56.797Z,20.76
2019-06-20T20:34:26.952Z,20.67
2019-06-20T20:36:56.511Z,20.51
2019-06-20T20:39:25.756Z,20.47
2019-06-20T20:41:55.345Z,20.37
2019-06-20T20:44:24.598Z,20.36
2019-06-20T20:46:53.922Z,20.29
2019-06-20T20:49:23.175Z,20.18
2019-06-20T20:51:52.358Z,20.06
2019-06-20T20:54:22.010Z,20.00
2019-06-20T20:56:51.612Z,19.88
2019-06-20T21:01:55.316Z,19.81
2019-06-20T21:04:24.554Z,19.72
2019-06-20T21:06:53.755Z,19.70
2019-06-20T21:09:23.018Z,19.72
2019-06-20T21:11:52.211Z,19.74
2019-06-20T21:14:22.062Z,19.81
2019-06-20T21:16:51.330Z,19.80
2019-06-20T21:19:20.884Z,19.78
2019-06-20T21:21:50.144Z,19.88
2019-06-20T21:24:19.621Z,19.87
2019-06-20T21:26:50.225Z,19.90
2019-06-20T21:29:19.879Z,19.87
2019-06-20T21:31:49.149Z,19.92
2019-06-20T21:34:18.356Z,19.89
2019-06-20T21:36:47.606Z,19.85
2019-06-20T21:39:17.225Z,19.85
2019-06-20T21:41:46.864Z,19.78
2019-06-20T21:44:16.073Z,19.73
2019-06-20T21:46:45.479Z,19.68
2019-06-20T21:49:14.695Z,19.68
2019-06-20T21:51:44.832Z,19.68
2019-06-20T21:54:15.601Z,19.71
2019-06-20T21:56:44.847Z,19.72
2019-06-20T21:59:14.385Z,19.80
2019-06-20T22:01:43.601Z,19.83
2019-06-20T22:04:12.900Z,19.89
2019-06-20T22:06:42.161Z,19.91
2019-06-20T22:09:11.431Z,19.93
2019-06-20T22:11:40.778Z,19.88
2019-06-20T22:14:09.982Z,19.96
2019-06-20T22:16:39.170Z,19.98
2019-06-20T22:19:08.429Z,20.02
2019-06-20T22:21:37.621Z,20.02
2019-06-20T22:24:06.876Z,20.02
2019-06-20T22:26:36.439Z,20.03
2019-06-20T22:29:06.088Z,20.11
2019-06-20T22:31:35.595Z,20.18
2019-06-20T22:34:05.316Z,20.01
2019-06-20T22:36:40.354Z,19.94
2019-06-20T22:39:45.344Z,19.82
2019-06-20T22:42:14.945Z,19.85
2019-06-20T22:44:45.167Z,19.88
2019-06-20T22:47:14.372Z,19.88
2019-06-20T22:49:43.630Z,19.73
2019-06-20T22:52:12.834Z,19.61
2019-06-20T22:54:42.188Z,19.54
2019-06-20T22:57:11.400Z,19.53
2019-06-20T22:59:40.603Z,19.49
2019-06-20T23:02:09.868Z,19.40
2019-06-20T23:04:39.501Z,19.34
2019-06-20T23:07:09.037Z,19.34
2019-06-20T23:09:38.253Z,19.22
2019-06-20T23:12:07.512Z,19.13
2019-06-20T23:14:36.712Z,19.10
2019-06-20T23:17:05.981Z,19.03
2019-06-20T23:19:35.181Z,19.06
2019-06-20T23:22:04.532Z,18.97
2019-06-20T23:24:33.737Z,18.97
2019-06-20T23:27:03.043Z,18.92
2019-06-20T23:29:32.269Z,18.90
2019-06-20T23:32:01.519Z,18.90
2019-06-20T23:34:30.743Z,18.84
2019-06-20T23:37:12.116Z,18.78
2019-06-20T23:39:31.076Z,18.73
2019-06-20T23:42:00.400Z,18.73
2019-06-20T23:44:29.619Z,18.76
2019-06-20T23:46:58.854Z,18.77
2019-06-20T23:49:28.078Z,18.69
2019-06-20T23:52:16.269Z,18.65
2019-06-20T23:54:45.463Z,18.68
2019-06-20T23:57:14.668Z,18.77
2019-06-20T23:59:44.213Z,18.88
